Time;durP1;ratioP1;P1;durP2;ratioP2;P2;SDS_P1;SDS_P2;PMS_P1;PMS_P2;Temp;Humidity;BMP_temperature;BMP_pressure;BME280_temperature;BME280_humidity;BME280_pressure;Samples;Min_cycle;Max_cycle;Signal;HPM_P1;HPM_P2
2022/03/19 00:01:14;;;;;;;13.27;6.17;;;-0.60;67.00;;;;;;5007280;28;20200;-77
2022/03/19 00:03:41;;;;;;;16.03;6.80;;;-0.60;67.00;;;;;;5011880;28;20856;-79
2022/03/19 00:06:07;;;;;;;11.30;7.03;;;-0.70;67.20;;;;;;5015976;28;20192;-79
2022/03/19 00:08:33;;;;;;;14.87;7.10;;;-0.70;67.50;;;;;;5011417;28;20220;-78
2022/03/19 00:11:00;;;;;;;14.20;7.23;;;-0.70;67.80;;;;;;5012032;28;20215;-78
2022/03/19 00:13:26;;;;;;;12.37;6.93;;;-0.70;67.90;;;;;;5016265;28;20180;-78
2022/03/19 00:15:52;;;;;;;14.67;7.07;;;-0.80;67.80;;;;;;5012718;28;20254;-78
2022/03/19 00:18:18;;;;;;;12.13;7.37;;;-0.80;67.70;;;;;;5007919;28;20643;-78
2022/03/19 00:20:44;;;;;;;13.33;7.17;;;-0.90;67.90;;;;;;5008947;28;20552;-78
2022/03/19 00:23:10;;;;;;;11.40;6.90;;;-1.00;67.80;;;;;;5010645;28;20191;-78
2022/03/19 00:25:35;;;;;;;10.83;6.70;;;-1.00;67.70;;;;;;5012281;28;20207;-78
2022/03/19 00:28:01;;;;;;;12.00;6.43;;;-1.00;67.70;;;;;;5012290;28;20264;-77
2022/03/19 00:30:27;;;;;;;14.97;6.80;;;-1.00;67.50;;;;;;5012428;28;20184;-78
2022/03/19 00:32:53;;;;;;;7.23;5.73;;;-1.10;67.50;;;;;;5011056;28;20242;-78
2022/03/19 00:35:19;;;;;;;12.80;6.07;;;-1.00;67.90;;;;;;5007619;28;20176;-78
2022/03/19 00:37:47;;;;;;;12.93;6.93;;;-1.00;68.00;;;;;;5014074;28;20234;-78
2022/03/19 00:40:14;;;;;;;12.80;6.70;;;-1.00;67.80;;;;;;5007398;28;20637;-78
2022/03/19 00:42:41;;;;;;;12.33;6.67;;;-1.00;68.00;;;;;;5006615;28;20190;-79
2022/03/19 00:45:08;;;;;;;11.13;5.77;;;-1.10;68.00;;;;;;5009610;28;20200;-78
2022/03/19 00:47:34;;;;;;;10.93;6.57;;;-1.10;68.10;;;;;;5012754;28;20196;-78
2022/03/19 00:50:01;;;;;;;6.80;5.47;;;-1.10;68.10;;;;;;5014302;28;20184;-77
2022/03/19 00:52:26;;;;;;;6.60;4.63;;;-1.10;67.90;;;;;;5012835;28;20182;-76
2022/03/19 00:54:52;;;;;;;9.63;5.57;;;-1.20;67.90;;;;;;5013229;28;20178;-78
2022/03/19 00:57:18;;;;;;;11.30;6.40;;;-1.20;68.30;;;;;;5012238;28;20215;-77
2022/03/19 00:59:43;;;;;;;8.43;5.63;;;-1.10;68.20;;;;;;5011906;28;20302;-78
2022/03/19 01:02:09;;;;;;;11.00;6.03;;;-1.10;68.30;;;;;;5007766;28;20219;-78
2022/03/19 01:04:35;;;;;;;6.77;4.93;;;-1.10;68.30;;;;;;5010034;28;20563;-77
2022/03/19 01:07:00;;;;;;;14.20;6.83;;;-1.20;68.20;;;;;;5016156;28;20180;-77
2022/03/19 01:09:26;;;;;;;13.63;7.00;;;-1.20;68.40;;;;;;5014503;28;20183;-77
2022/03/19 01:11:52;;;;;;;13.53;6.63;;;-1.20;68.40;;;;;;5014797;28;20180;-79
2022/03/19 01:14:18;;;;;;;13.00;6.50;;;-1.10;68.40;;;;;;5013658;28;20230;-77
2022/03/19 01:16:44;;;;;;;13.70;7.23;;;-1.10;68.50;;;;;;5013516;28;20185;-77
2022/03/19 01:19:10;;;;;;;10.37;6.73;;;-1.10;68.70;;;;;;5009784;28;20239;-77
2022/03/19 01:21:35;;;;;;;17.43;8.07;;;-1.20;68.80;;;;;;5009166;28;20192;-77
2022/03/19 01:24:02;;;;;;;11.97;6.10;;;-1.20;68.70;;;;;;5016228;28;20180;-78
2022/03/19 01:26:28;;;;;;;12.50;6.30;;;-1.20;68.80;;;;;;5019060;28;20179;-78
2022/03/19 01:28:54;;;;;;;5.60;5.03;;;-1.20;68.90;;;;;;5014617;28;20181;-78
2022/03/19 01:31:23;;;;;;;8.73;5.53;;;-1.20;69.10;;;;;;5012278;28;20195;-78
2022/03/19 01:33:49;;;;;;;8.93;5.60;;;-1.20;68.90;;;;;;5016820;28;20185;-78
2022/03/19 01:36:16;;;;;;;10.53;5.80;;;-1.20;69.00;;;;;;5013483;28;20189;-77
2022/03/19 01:38:41;;;;;;;9.20;5.40;;;-1.20;69.00;;;;;;5007223;28;20295;-78
2022/03/19 01:41:07;;;;;;;13.30;5.93;;;-1.30;69.10;;;;;;5014818;28;20269;-77
2022/03/19 01:43:35;;;;;;;8.93;5.03;;;-1.30;69.20;;;;;;5015039;28;20184;-78
2022/03/19 01:46:02;;;;;;;9.23;6.30;;;-1.30;69.30;;;;;;5017424;28;20177;-77
2022/03/19 01:48:28;;;;;;;8.13;5.13;;;-1.30;69.30;;;;;;5015705;28;20590;-77
2022/03/19 01:50:53;;;;;;;11.53;6.10;;;-1.40;69.30;;;;;;5015877;28;20180;-77
2022/03/19 01:53:19;;;;;;;12.33;5.27;;;-1.40;69.30;;;;;;5012532;28;20268;-78
2022/03/19 01:55:45;;;;;;;6.13;4.93;;;-1.30;69.20;;;;;;5011209;28;20335;-77
2022/03/19 01:58:11;;;;;;;7.13;4.87;;;-1.40;69.30;;;;;;5015111;28;20686;-77
2022/03/19 02:00:37;;;;;;;7.90;4.60;;;-1.40;69.30;;;;;;5016408;28;20279;-77
2022/03/19 02:03:05;;;;;;;5.80;5.17;;;-1.40;69.10;;;;;;5019009;28;21652;-78
2022/03/19 02:05:31;;;;;;;8.70;4.43;;;-1.40;69.10;;;;;;5018488;28;20207;-78
2022/03/19 02:07:58;;;;;;;6.33;4.73;;;-1.40;69.50;;;;;;5006676;28;20830;-78
2022/03/19 02:10:24;;;;;;;7.60;4.23;;;-1.40;69.70;;;;;;5014764;28;20203;-77
2022/03/19 02:12:50;;;;;;;8.43;5.40;;;-1.40;69.60;;;;;;5015310;28;20711;-78
2022/03/19 02:15:16;;;;;;;6.77;5.03;;;-1.50;70.00;;;;;;5012808;28;20181;-78
2022/03/19 02:17:42;;;;;;;7.83;5.53;;;-1.50;70.20;;;;;;5017477;28;20277;-78
2022/03/19 02:20:09;;;;;;;10.23;5.03;;;-1.50;70.30;;;;;;5010605;28;20180;-78
2022/03/19 02:22:35;;;;;;;10.83;5.80;;;-1.60;70.70;;;;;;5016262;28;20176;-78
2022/03/19 02:27:46;;;;;;;8.00;5.20;;;-1.70;70.70;;;;;;5014948;28;20197;-78
2022/03/19 02:30:14;;;;;;;6.23;4.50;;;-1.70;70.90;;;;;;5015936;28;20180;-78
2022/03/19 02:32:49;;;;;;;12.17;5.63;;;-1.70;71.00;;;;;;5006687;28;20176;-78
2022/03/19 02:35:16;;;;;;;7.43;5.17;;;-1.80;71.00;;;;;;5010970;28;20285;-78
2022/03/19 02:37:49;;;;;;;14.00;6.10;;;-1.80;70.90;;;;;;5014637;28;20693;-78
2022/03/19 02:40:20;;;;;;;7.87;4.53;;;-1.80;70.90;;;;;;5018746;28;20187;-79
2022/03/19 02:42:54;;;;;;;15.00;5.37;;;-1.80;70.70;;;;;;5010510;28;20221;-78
2022/03/19 02:45:21;;;;;;;11.33;4.93;;;-1.80;70.80;;;;;;5011882;28;20217;-77
2022/03/19 02:47:57;;;;;;;11.03;4.77;;;-1.80;71.00;;;;;;5017318;28;20243;-78
2022/03/19 02:50:27;;;;;;;11.73;5.23;;;-1.80;71.00;;;;;;5012339;28;20217;-77
2022/03/19 02:52:54;;;;;;;9.67;5.27;;;-1.80;71.10;;;;;;5014686;28;20216;-78
2022/03/19 02:55:20;;;;;;;5.60;4.97;;;-1.80;71.30;;;;;;5012621;28;20179;-79
2022/03/19 02:57:46;;;;;;;9.73;4.07;;;-1.80;71.30;;;;;;5012741;28;20296;-78
2022/03/19 03:00:12;;;;;;;5.00;4.00;;;-1.80;71.10;;;;;;5012437;28;20180;-78
2022/03/19 03:02:38;;;;;;;5.47;4.03;;;-1.80;71.10;;;;;;5012418;28;20190;-78
2022/03/19 03:05:05;;;;;;;7.20;4.40;;;-1.80;71.10;;;;;;5014200;28;20215;-77
2022/03/19 03:07:31;;;;;;;4.23;3.73;;;-1.80;71.30;;;;;;5013011;28;20220;-77
2022/03/19 03:09:56;;;;;;;5.27;4.23;;;-1.90;71.30;;;;;;5012305;28;20213;-78
2022/03/19 03:12:23;;;;;;;4.50;3.73;;;-1.90;71.50;;;;;;5012922;28;20625;-77
2022/03/19 03:14:49;;;;;;;8.77;4.30;;;-1.90;71.60;;;;;;5016176;28;20191;-77
2022/03/19 03:17:15;;;;;;;7.67;4.13;;;-1.90;71.80;;;;;;5012792;28;20185;-78
2022/03/19 03:19:42;;;;;;;5.83;3.93;;;-2.00;71.70;;;;;;5008704;28;20223;-78
2022/03/19 03:22:09;;;;;;;5.93;4.37;;;-2.00;71.70;;;;;;5012853;28;20604;-78
2022/03/19 03:24:35;;;;;;;6.90;3.60;;;-2.00;71.80;;;;;;5013749;28;20187;-78
2022/03/19 03:27:01;;;;;;;5.80;4.13;;;-2.00;71.80;;;;;;5008328;28;20205;-78
2022/03/19 03:29:29;;;;;;;7.13;3.93;;;-2.10;71.80;;;;;;5014830;28;20241;-78
2022/03/19 03:31:55;;;;;;;4.53;4.13;;;-2.10;71.80;;;;;;5006434;28;20671;-78
2022/03/19 03:34:21;;;;;;;7.80;4.40;;;-2.10;72.00;;;;;;5015821;28;20182;-77
2022/03/19 03:36:46;;;;;;;5.20;3.90;;;-2.10;72.10;;;;;;5012330;28;20274;-77
2022/03/19 03:39:12;;;;;;;6.40;4.13;;;-2.20;72.30;;;;;;5013960;28;20268;-77
2022/03/19 03:41:38;;;;;;;7.87;4.97;;;-2.20;72.30;;;;;;5013650;28;20268;-77
2022/03/19 03:44:04;;;;;;;6.37;4.07;;;-2.20;72.30;;;;;;5011315;28;20310;-77
2022/03/19 03:46:29;;;;;;;6.73;4.10;;;-2.20;72.10;;;;;;5012128;28;20681;-77
2022/03/19 03:48:55;;;;;;;4.93;3.50;;;-2.20;72.00;;;;;;5016151;28;20186;-77
2022/03/19 03:51:21;;;;;;;6.30;3.63;;;-2.30;72.00;;;;;;5008559;28;20268;-77
2022/03/19 03:53:47;;;;;;;6.30;3.93;;;-2.30;72.10;;;;;;5007153;28;20240;-77
2022/03/19 03:56:13;;;;;;;8.40;4.60;;;-2.30;72.20;;;;;;5013622;28;20186;-77
2022/03/19 03:58:42;;;;;;;4.23;3.90;;;-2.40;72.30;;;;;;5013433;28;20220;-78
2022/03/19 04:01:09;;;;;;;8.60;4.10;;;-2.40;72.30;;;;;;5015438;28;20184;-78
2022/03/19 04:03:35;;;;;;;6.73;4.67;;;-2.40;72.40;;;;;;5010390;28;20197;-78
2022/03/19 04:06:01;;;;;;;4.90;4.27;;;-2.40;72.50;;;;;;5009109;28;20624;-77
2022/03/19 04:08:27;;;;;;;9.37;4.83;;;-2.50;72.60;;;;;;5013090;28;20195;-77
2022/03/19 04:10:52;;;;;;;5.57;3.87;;;-2.50;72.60;;;;;;5008031;28;22013;-77
2022/03/19 04:13:18;;;;;;;9.53;4.73;;;-2.50;72.80;;;;;;5008990;28;20192;-78
2022/03/19 04:15:44;;;;;;;5.43;3.57;;;-2.50;72.80;;;;;;5012763;28;20178;-78
2022/03/19 04:18:11;;;;;;;4.10;3.07;;;-2.50;73.00;;;;;;5010512;28;20333;-78
2022/03/19 04:20:36;;;;;;;8.10;3.77;;;-2.50;73.10;;;;;;5010462;28;20186;-79
2022/03/19 04:23:03;;;;;;;5.37;3.87;;;-2.50;73.30;;;;;;5010870;28;20174;-80
2022/03/19 04:25:28;;;;;;;9.73;4.63;;;-2.50;73.30;;;;;;5005753;28;20188;-79
2022/03/19 04:27:56;;;;;;;8.53;4.53;;;-2.50;73.50;;;;;;5009551;28;20185;-79
2022/03/19 04:30:23;;;;;;;5.30;4.17;;;-2.50;73.40;;;;;;5009651;28;20186;-79
2022/03/19 04:32:52;;;;;;;6.30;3.80;;;-2.50;73.50;;;;;;5005961;28;20282;-79
2022/03/19 04:38:06;;;;;;;8.50;5.10;;;-2.50;73.60;;;;;;5013730;28;20967;-78
2022/03/19 04:40:33;;;;;;;7.53;3.63;;;-2.50;73.50;;;;;;5037732;28;20817;-78
2022/03/19 04:42:59;;;;;;;7.00;3.63;;;-2.50;73.40;;;;;;5008580;28;20214;-78
2022/03/19 04:45:25;;;;;;;5.97;4.43;;;-2.50;73.40;;;;;;5022895;28;20232;-79
2022/03/19 04:47:51;;;;;;;9.40;3.87;;;-2.50;73.30;;;;;;5013917;28;20257;-78
2022/03/19 04:50:17;;;;;;;7.03;4.47;;;-2.50;73.30;;;;;;5016688;28;20841;-79
2022/03/19 04:52:44;;;;;;;5.07;4.60;;;-2.50;73.50;;;;;;5011826;28;20194;-79
2022/03/19 04:55:10;;;;;;;7.47;4.03;;;-2.50;73.50;;;;;;5015685;28;20693;-79
2022/03/19 04:57:37;;;;;;;8.40;4.37;;;-2.40;73.60;;;;;;5015950;28;20696;-79
2022/03/19 05:00:05;;;;;;;10.23;4.57;;;-2.40;73.60;;;;;;5020608;28;20184;-77
2022/03/19 05:02:31;;;;;;;7.27;4.60;;;-2.40;73.60;;;;;;5006620;28;20271;-78
2022/03/19 05:04:57;;;;;;;5.33;3.87;;;-2.40;73.70;;;;;;5012904;28;20249;-79
2022/03/19 05:07:24;;;;;;;4.00;3.63;;;-2.40;73.70;;;;;;5016395;28;20214;-77
2022/03/19 05:12:43;;;;;;;7.40;3.87;;;-2.30;73.70;;;;;;5005526;28;20207;-77
2022/03/19 05:15:16;;;;;;;5.50;3.67;;;-2.30;73.60;;;;;;5016189;28;20214;-78
2022/03/19 05:17:43;;;;;;;7.43;4.70;;;-2.20;73.70;;;;;;5013012;28;20595;-77
2022/03/19 05:20:10;;;;;;;6.47;3.83;;;-2.20;73.70;;;;;;5014757;28;20183;-76
2022/03/19 05:22:37;;;;;;;6.93;4.57;;;-2.20;73.90;;;;;;5018706;28;20252;-77
2022/03/19 05:25:03;;;;;;;8.67;4.53;;;-2.10;74.10;;;;;;5015519;28;20184;-77
2022/03/19 05:27:29;;;;;;;6.87;4.40;;;-2.10;74.70;;;;;;5012531;28;20745;-78
2022/03/19 05:29:55;;;;;;;6.17;4.30;;;-2.00;74.90;;;;;;5014326;28;20252;-78
2022/03/19 05:32:22;;;;;;;4.70;4.23;;;-2.00;75.00;;;;;;5012436;28;20321;-77
2022/03/19 05:34:48;;;;;;;6.70;4.67;;;-2.00;75.00;;;;;;5005791;28;20182;-77
2022/03/19 05:37:15;;;;;;;3.53;3.23;;;-2.00;75.00;;;;;;5015658;28;20298;-77
2022/03/19 05:39:41;;;;;;;3.33;2.97;;;-1.90;74.80;;;;;;5010966;28;20266;-77
2022/03/19 05:42:07;;;;;;;3.77;2.37;;;-1.90;74.80;;;;;;5013988;28;20192;-76
2022/03/19 05:44:33;;;;;;;3.00;2.63;;;-1.90;74.40;;;;;;5015588;28;20192;-77
2022/03/19 05:46:59;;;;;;;3.67;2.13;;;-1.90;73.80;;;;;;5015795;28;20268;-79
2022/03/19 05:49:26;;;;;;;3.17;2.87;;;-1.80;73.60;;;;;;5012388;28;20191;-79
2022/03/19 05:51:52;;;;;;;4.33;3.27;;;-1.80;73.20;;;;;;5019064;28;20187;-77
2022/03/19 05:54:18;;;;;;;4.13;2.83;;;-1.70;73.10;;;;;;5013143;28;20182;-77
2022/03/19 05:56:44;;;;;;;4.17;2.77;;;-1.70;72.90;;;;;;5015819;28;20709;-78
2022/03/19 05:59:10;;;;;;;2.93;2.67;;;-1.70;72.80;;;;;;5015071;28;20215;-78
2022/03/19 06:01:35;;;;;;;3.00;2.73;;;-1.60;72.50;;;;;;5011628;28;20193;-78
2022/03/19 06:04:02;;;;;;;4.07;3.70;;;-1.60;72.20;;;;;;5011631;28;20175;-77
2022/03/19 06:06:28;;;;;;;4.13;3.23;;;-1.60;72.10;;;;;;5012664;28;20200;-78
2022/03/19 06:08:54;;;;;;;4.63;3.93;;;-1.60;72.20;;;;;;5015835;28;20188;-79
2022/03/19 06:11:20;;;;;;;5.40;3.97;;;-1.60;72.30;;;;;;5019132;28;20195;-78
2022/03/19 06:13:46;;;;;;;8.30;4.47;;;-1.50;72.30;;;;;;5018799;28;20575;-79
2022/03/19 06:16:12;;;;;;;15.20;5.00;;;-1.50;72.30;;;;;;5016571;28;20192;-77
2022/03/19 06:18:38;;;;;;;9.50;5.80;;;-1.40;72.30;;;;;;5008513;28;20754;-77
2022/03/19 06:21:04;;;;;;;12.37;6.30;;;-1.40;72.30;;;;;;5008530;28;20271;-78
2022/03/19 06:23:31;;;;;;;9.97;5.83;;;-1.30;72.40;;;;;;5015930;28;20242;-78
2022/03/19 06:25:57;;;;;;;7.77;5.30;;;-1.30;72.70;;;;;;5012646;28;20189;-77
2022/03/19 06:28:23;;;;;;;11.97;6.67;;;-1.30;72.80;;;;;;5013740;28;20202;-78
2022/03/19 06:30:49;;;;;;;9.33;6.47;;;-1.30;72.60;;;;;;5014988;28;21615;-78
2022/03/19 06:33:15;;;;;;;11.63;6.00;;;-1.20;72.90;;;;;;5011431;28;21059;-77
2022/03/19 06:38:29;;;;;;;13.47;6.40;;;-1.00;72.90;;;;;;5015827;28;20256;-78
2022/03/19 06:40:55;;;;;;;8.47;5.80;;;-1.00;72.60;;;;;;5011671;28;20186;-79
2022/03/19 06:43:21;;;;;;;17.67;7.70;;;-0.90;72.50;;;;;;5019138;28;20643;-78
2022/03/19 06:45:47;;;;;;;13.60;7.40;;;-0.80;72.30;;;;;;5012119;28;20263;-78
2022/03/19 06:48:13;;;;;;;13.73;7.03;;;-0.70;72.10;;;;;;5008333;28;20181;-78
2022/03/19 06:50:39;;;;;;;9.60;6.13;;;-0.60;71.60;;;;;;5017081;28;20187;-78
2022/03/19 06:53:05;;;;;;;10.80;6.87;;;-0.60;71.40;;;;;;5012122;28;20181;-77
2022/03/19 06:55:32;;;;;;;9.33;6.63;;;-0.50;71.10;;;;;;5008430;28;20556;-78
2022/03/19 06:57:58;;;;;;;9.47;5.50;;;-0.50;70.40;;;;;;5017038;28;20797;-77
2022/03/19 07:00:25;;;;;;;6.67;5.13;;;-0.40;70.20;;;;;;5016838;28;20211;-78
2022/03/19 07:02:54;;;;;;;8.53;5.07;;;-0.40;69.90;;;;;;5017353;28;20674;-78
2022/03/19 07:05:24;;;;;;;5.60;5.10;;;-0.30;69.70;;;;;;5011685;28;20347;-79
2022/03/19 07:07:51;;;;;;;10.13;5.50;;;-0.20;69.50;;;;;;5021592;28;20192;-78
2022/03/19 07:10:19;;;;;;;11.23;5.50;;;-0.20;69.20;;;;;;5017033;28;20184;-78
2022/03/19 07:12:49;;;;;;;8.70;5.60;;;-0.10;68.70;;;;;;5014460;28;20276;-78
2022/03/19 07:15:17;;;;;;;8.57;6.07;;;-0.10;68.60;;;;;;5017404;28;20184;-77
2022/03/19 07:17:43;;;;;;;7.87;5.93;;;0.00;68.70;;;;;;5005944;28;20235;-78
2022/03/19 07:20:11;;;;;;;6.10;5.17;;;0.00;68.20;;;;;;5014349;28;20581;-78
2022/03/19 07:22:51;;;;;;;8.53;5.73;;;0.00;67.90;;;;;;5012341;28;20192;-78
2022/03/19 07:25:19;;;;;;;4.97;3.03;;;0.10;67.10;;;;;;5013445;28;20994;-78
2022/03/19 07:27:46;;;;;;;5.83;4.93;;;0.10;67.10;;;;;;5016694;28;20202;-79
2022/03/19 07:30:12;;;;;;;8.83;4.83;;;0.20;66.70;;;;;;5013334;28;20200;-78
2022/03/19 07:32:38;;;;;;;7.73;5.13;;;0.20;67.00;;;;;;5013188;28;20184;-77
2022/03/19 07:35:06;;;;;;;8.70;4.53;;;0.30;67.10;;;;;;5017659;28;20226;-77
2022/03/19 07:37:37;;;;;;;4.73;4.07;;;0.40;66.50;;;;;;5014598;28;20240;-79
2022/03/19 07:40:04;;;;;;;8.93;4.40;;;0.50;66.10;;;;;;5014285;28;20667;-77
2022/03/19 07:42:29;;;;;;;5.50;4.67;;;0.70;66.50;;;;;;5015095;28;20561;-77
2022/03/19 07:44:55;;;;;;;6.63;4.70;;;0.90;66.40;;;;;;5011919;28;20264;-78
2022/03/19 07:47:21;;;;;;;9.53;4.47;;;1.00;66.40;;;;;;5012111;28;20271;-78
2022/03/19 07:49:47;;;;;;;14.13;4.30;;;1.30;66.30;;;;;;5012087;28;20255;-79
2022/03/19 07:52:13;;;;;;;11.20;6.03;;;1.40;66.30;;;;;;5011011;28;20193;-78
2022/03/19 07:54:39;;;;;;;9.23;5.93;;;1.60;66.00;;;;;;5011064;28;20182;-78
2022/03/19 07:57:06;;;;;;;6.37;5.43;;;1.80;66.00;;;;;;5009837;28;20196;-77
2022/03/19 07:59:32;;;;;;;8.57;4.73;;;2.00;65.80;;;;;;5012755;28;20227;-78
2022/03/19 08:01:58;;;;;;;5.23;4.10;;;2.20;65.40;;;;;;5013630;28;20645;-77
2022/03/19 08:04:24;;;;;;;5.17;4.30;;;2.40;64.10;;;;;;5011947;28;20184;-75
2022/03/19 08:06:55;;;;;;;5.87;4.57;;;2.60;62.80;;;;;;5015589;28;20748;-74
2022/03/19 08:09:22;;;;;;;9.17;5.23;;;2.70;61.80;;;;;;5010490;28;20192;-75
2022/03/19 08:11:49;;;;;;;8.50;6.23;;;2.90;62.00;;;;;;5008249;28;20176;-75
2022/03/19 08:14:15;;;;;;;8.17;5.20;;;3.10;61.60;;;;;;5008096;28;20238;-74
2022/03/19 08:16:45;;;;;;;8.23;5.30;;;3.40;61.20;;;;;;5008441;28;20177;-75
2022/03/19 08:19:11;;;;;;;6.47;4.50;;;3.80;60.90;;;;;;5004861;28;20663;-74
2022/03/19 08:21:38;;;;;;;7.27;4.30;;;4.20;59.10;;;;;;5008458;28;20275;-74
2022/03/19 08:24:07;;;;;;;5.77;4.53;;;4.80;57.80;;;;;;5010130;28;20242;-74
2022/03/19 08:26:34;;;;;;;8.17;5.33;;;5.50;57.00;;;;;;5009956;28;20184;-74
2022/03/19 08:29:02;;;;;;;5.60;4.80;;;6.30;55.40;;;;;;5010146;28;20177;-75
2022/03/19 08:31:28;;;;;;;5.50;5.00;;;7.00;52.60;;;;;;5008640;28;20184;-74
2022/03/19 08:33:55;;;;;;;5.70;4.63;;;7.60;53.10;;;;;;5008363;28;20254;-74
2022/03/19 08:36:21;;;;;;;7.30;5.63;;;8.40;53.00;;;;;;5010112;28;20239;-75
2022/03/19 08:41:31;;;;;;;6.77;5.40;;;9.80;50.90;;;;;;5019340;28;20262;-74
2022/03/19 08:43:58;;;;;;;6.10;5.27;;;10.60;50.40;;;;;;5011017;28;20234;-74
2022/03/19 08:46:24;;;;;;;5.67;4.90;;;11.40;49.90;;;;;;5009259;28;20299;-74
2022/03/19 08:48:50;;;;;;;7.93;5.20;;;12.10;48.00;;;;;;5005479;28;20259;-74
2022/03/19 08:54:00;;;;;;;6.10;5.60;;;13.70;46.30;;;;;;5006594;28;20244;-71
2022/03/19 08:56:26;;;;;;;10.05;6.45;;;14.50;46.00;;;;;;5010978;28;20185;-74
2022/03/19 08:58:52;;;;;;;8.90;7.05;;;15.00;44.30;;;;;;5010639;28;20299;-70
2022/03/19 09:01:19;;;;;;;6.22;5.25;;;15.50;44.00;;;;;;5005018;28;20281;-73
2022/03/19 09:03:45;;;;;;;6.80;6.20;;;15.40;42.40;;;;;;5010886;28;20181;-74
2022/03/19 09:06:14;;;;;;;6.30;5.68;;;15.60;42.70;;;;;;5010068;28;20201;-72
2022/03/19 09:08:41;;;;;;;5.35;4.90;;;15.80;41.70;;;;;;5012232;28;20955;-73
2022/03/19 09:11:06;;;;;;;7.57;5.43;;;16.20;41.80;;;;;;5009437;28;20200;-72
2022/03/19 09:13:32;;;;;;;8.05;5.70;;;16.40;41.20;;;;;;5003755;28;20185;-72
2022/03/19 09:15:58;;;;;;;8.18;5.78;;;16.70;40.70;;;;;;5010983;28;20657;-71
2022/03/19 09:18:24;;;;;;;5.25;4.85;;;17.10;41.10;;;;;;5008104;28;20221;-75
2022/03/19 09:20:50;;;;;;;5.82;5.15;;;17.60;41.40;;;;;;5021447;28;20580;-71
2022/03/19 09:23:16;;;;;;;6.60;5.78;;;18.10;39.80;;;;;;5001614;28;20189;-72
2022/03/19 09:25:42;;;;;;;7.45;5.40;;;18.60;40.80;;;;;;5005163;28;20261;-70
2022/03/19 09:28:08;;;;;;;5.88;5.38;;;18.90;39.90;;;;;;5004439;28;20185;-71
2022/03/19 09:30:34;;;;;;;6.80;6.05;;;19.20;40.30;;;;;;5010104;28;20176;-71
2022/03/19 09:33:00;;;;;;;7.85;5.72;;;19.80;39.80;;;;;;5010425;28;20186;-71
2022/03/19 09:35:26;;;;;;;6.53;6.03;;;20.40;39.60;;;;;;5007252;28;20864;-71
2022/03/19 09:37:52;;;;;;;11.10;6.43;;;20.60;39.40;;;;;;5011400;28;20734;-71
2022/03/19 09:40:22;;;;;;;6.47;5.97;;;20.70;36.80;;;;;;5008210;28;20267;-72
2022/03/19 09:42:52;;;;;;;6.65;5.63;;;19.30;36.50;;;;;;5010374;28;20177;-74
2022/03/19 09:45:19;;;;;;;6.28;5.88;;;17.70;37.40;;;;;;5008772;28;20584;-73
2022/03/19 09:47:46;;;;;;;6.65;6.00;;;16.50;38.90;;;;;;5010390;28;20540;-72
2022/03/19 09:50:12;;;;;;;6.72;5.45;;;15.40;40.90;;;;;;5006337;28;20243;-73
2022/03/19 09:52:41;;;;;;;5.90;5.40;;;15.30;41.00;;;;;;5011177;28;20267;-69
2022/03/19 09:55:08;;;;;;;6.68;6.05;;;15.40;41.00;;;;;;5010060;28;20184;-71
2022/03/19 09:57:35;;;;;;;6.15;5.55;;;15.40;41.10;;;;;;5008022;28;20322;-71
2022/03/19 10:00:00;;;;;;;5.28;4.93;;;15.00;40.20;;;;;;5006843;28;20341;-72
2022/03/19 10:02:26;;;;;;;6.03;5.50;;;14.80;40.20;;;;;;5010253;28;20659;-71
2022/03/19 10:04:53;;;;;;;6.43;5.70;;;14.90;42.10;;;;;;5013328;28;20189;-72
2022/03/19 10:10:11;;;;;;;5.63;5.05;;;16.50;41.50;;;;;;5017039;28;20327;-72
2022/03/19 10:12:39;;;;;;;6.13;5.68;;;17.30;40.20;;;;;;5011715;28;20180;-72
2022/03/19 10:15:10;;;;;;;6.45;5.63;;;17.90;39.90;;;;;;5011444;28;20268;-71
2022/03/19 10:17:38;;;;;;;6.00;5.30;;;18.60;39.30;;;;;;5013398;28;20216;-72
2022/03/19 10:20:11;;;;;;;5.32;4.93;;;18.60;37.00;;;;;;5010555;28;20338;-70
2022/03/19 10:22:42;;;;;;;5.55;4.85;;;18.00;38.80;;;;;;5016240;28;20554;-71
2022/03/19 10:25:09;;;;;;;5.75;5.18;;;18.00;38.20;;;;;;5008725;28;20181;-71
2022/03/19 10:27:37;;;;;;;5.38;4.88;;;18.50;38.10;;;;;;5009436;28;20216;-72
2022/03/19 10:30:16;;;;;;;6.53;4.75;;;19.00;38.10;;;;;;5013565;28;20181;-72
2022/03/19 10:32:46;;;;;;;5.47;5.00;;;19.10;38.10;;;;;;5010937;28;20176;-73
2022/03/19 10:35:34;;;;;;;6.03;4.93;;;18.70;37.10;;;;;;5017476;28;20234;-72
2022/03/19 10:38:20;;;;;;;5.18;4.70;;;18.20;38.20;;;;;;5008932;28;20250;-73
2022/03/19 10:40:51;;;;;;;5.72;5.15;;;18.40;38.30;;;;;;5010958;28;20883;-73
2022/03/19 10:43:19;;;;;;;5.78;5.20;;;18.70;38.20;;;;;;5011059;28;20586;-73
2022/03/19 10:45:50;;;;;;;4.60;4.30;;;18.90;37.60;;;;;;5014829;28;20183;-72
2022/03/19 10:48:22;;;;;;;5.60;5.13;;;19.10;37.30;;;;;;5016547;28;20234;-73
2022/03/19 10:50:49;;;;;;;5.43;5.05;;;19.20;37.80;;;;;;5016685;28;20179;-73
2022/03/19 10:53:15;;;;;;;4.53;4.22;;;19.50;37.90;;;;;;5015740;28;20223;-73
2022/03/19 10:55:40;;;;;;;4.30;4.00;;;19.80;37.30;;;;;;5011748;28;20786;-72
2022/03/19 10:58:08;;;;;;;6.85;4.63;;;20.00;37.00;;;;;;5011848;28;20300;-72
2022/03/19 11:00:35;;;;;;;4.75;4.35;;;20.20;37.80;;;;;;5014531;28;20185;-72
2022/03/19 11:03:12;;;;;;;4.38;4.07;;;20.50;36.10;;;;;;5013093;28;20188;-74
2022/03/19 11:05:39;;;;;;;4.88;4.57;;;20.90;37.00;;;;;;5012095;28;20191;-74
2022/03/19 11:08:09;;;;;;;4.93;4.63;;;21.30;35.70;;;;;;5014633;28;20255;-73
2022/03/19 11:10:36;;;;;;;4.88;4.57;;;21.50;36.20;;;;;;5012149;28;20180;-73
2022/03/19 11:13:06;;;;;;;5.10;4.63;;;21.50;36.30;;;;;;5008136;28;20173;-74
2022/03/19 11:15:34;;;;;;;5.00;4.60;;;21.30;36.90;;;;;;5009896;28;20189;-74
2022/03/19 11:18:07;;;;;;;5.13;4.70;;;21.20;36.70;;;;;;5005334;28;20200;-73
2022/03/19 11:20:34;;;;;;;4.78;4.57;;;21.10;36.10;;;;;;5009165;28;20184;-73
2022/03/19 11:23:04;;;;;;;4.57;4.20;;;20.60;36.00;;;;;;5009245;28;20184;-73
2022/03/19 11:25:47;;;;;;;4.97;4.55;;;19.90;36.60;;;;;;5015690;28;20843;-74
2022/03/19 11:28:14;;;;;;;4.40;4.18;;;19.90;38.40;;;;;;5011309;28;20188;-72
2022/03/19 11:30:57;;;;;;;6.05;4.03;;;19.70;36.80;;;;;;5009785;28;20267;-74
2022/03/19 11:33:24;;;;;;;5.05;4.57;;;19.20;36.90;;;;;;5006882;28;20275;-72
2022/03/19 11:36:16;;;;;;;5.13;4.72;;;19.10;37.20;;;;;;5004205;28;20191;-71
2022/03/19 11:38:51;;;;;;;5.45;4.60;;;19.30;37.40;;;;;;5007289;28;20228;-73
2022/03/19 11:41:26;;;;;;;5.18;4.88;;;19.60;36.90;;;;;;5006853;28;20667;-73
2022/03/19 11:44:24;;;;;;;4.93;4.55;;;19.10;37.70;;;;;;5005704;28;20211;-73
2022/03/19 11:47:09;;;;;;;5.20;4.80;;;18.30;37.00;;;;;;5008954;28;20618;-70
2022/03/19 11:49:53;;;;;;;5.05;4.38;;;18.10;38.40;;;;;;5014993;28;20176;-71
2022/03/19 11:52:39;;;;;;;4.93;4.53;;;18.40;38.70;;;;;;5006182;28;20197;-71
2022/03/19 11:55:09;;;;;;;4.95;4.45;;;18.70;38.00;;;;;;5008768;28;20219;-71
2022/03/19 11:57:58;;;;;;;6.88;4.45;;;18.50;37.50;;;;;;5007933;28;20251;-75
2022/03/19 12:00:34;;;;;;;4.53;4.22;;;17.80;38.40;;;;;;5011918;28;20224;-74
2022/03/19 12:03:17;;;;;;;4.80;4.45;;;17.50;39.20;;;;;;5008943;28;20603;-74
2022/03/19 12:05:48;;;;;;;4.75;4.40;;;17.30;38.70;;;;;;5023136;28;20207;-73
2022/03/19 12:08:18;;;;;;;4.45;4.18;;;17.10;38.70;;;;;;5007949;28;20468;-73
2022/03/19 12:11:02;;;;;;;5.70;4.25;;;17.10;39.30;;;;;;5006820;28;20181;-73
2022/03/19 12:13:28;;;;;;;4.82;4.30;;;17.00;38.20;;;;;;5007399;28;20185;-73
2022/03/19 12:15:55;;;;;;;5.18;4.45;;;16.70;38.60;;;;;;5008195;28;20675;-73
2022/03/19 12:18:24;;;;;;;5.47;4.97;;;16.40;39.30;;;;;;5008582;28;20220;-73
2022/03/19 12:20:52;;;;;;;4.72;4.38;;;16.50;39.30;;;;;;5008016;28;21895;-72
2022/03/19 12:23:19;;;;;;;5.32;4.47;;;16.90;38.70;;;;;;5007390;28;21007;-72
2022/03/19 12:25:51;;;;;;;6.00;4.68;;;17.10;39.00;;;;;;5010635;28;20741;-73
2022/03/19 12:28:18;;;;;;;4.90;4.53;;;17.20;39.10;;;;;;5008576;28;20709;-73
2022/03/19 12:30:44;;;;;;;4.22;3.85;;;17.30;38.70;;;;;;5013941;28;20184;-73
2022/03/19 12:33:10;;;;;;;6.05;4.55;;;17.00;38.40;;;;;;5008951;28;20189;-73
2022/03/19 12:35:41;;;;;;;5.03;4.53;;;16.40;38.90;;;;;;5005739;28;20181;-73
2022/03/19 12:38:08;;;;;;;4.22;3.92;;;15.70;39.90;;;;;;5006735;28;20729;-73
2022/03/19 12:43:20;;;;;;;4.25;3.95;;;14.40;40.50;;;;;;5015233;28;20223;-73
2022/03/19 12:45:49;;;;;;;5.53;4.45;;;13.70;40.70;;;;;;5006834;28;20177;-74
2022/03/19 12:48:21;;;;;;;3.75;3.55;;;13.20;40.80;;;;;;5003871;28;20666;-74
2022/03/19 12:50:53;;;;;;;4.05;3.75;;;13.30;42.00;;;;;;5008337;28;20185;-73
2022/03/19 12:53:39;;;;;;;4.30;4.00;;;13.80;41.30;;;;;;5008026;28;20185;-73
2022/03/19 12:56:14;;;;;;;4.55;4.03;;;14.30;40.50;;;;;;5012712;28;20177;-73
2022/03/19 12:58:43;;;;;;;4.18;3.35;;;14.50;40.20;;;;;;5010061;28;20218;-73
2022/03/19 13:01:16;;;;;;;3.83;3.55;;;14.70;39.80;;;;;;5009809;28;20670;-73
2022/03/19 13:03:42;;;;;;;4.30;4.00;;;15.00;40.00;;;;;;5016922;28;20191;-74
2022/03/19 13:06:14;;;;;;;4.05;3.83;;;15.10;39.00;;;;;;5008754;28;21912;-74
2022/03/19 13:08:48;;;;;;;4.72;4.30;;;15.40;39.20;;;;;;5020598;28;20196;-73
2022/03/19 13:11:16;;;;;;;6.10;4.45;;;16.00;39.30;;;;;;5014879;28;20191;-73